Terminal Aerodrome Forecast
Issued by NWS

Home | Current Version | Previous Version | Text Only | Print | Product List | Glossary On
Versions: 1 2 3 4 5 6 7 8 9 10 11 12
267
FTUS45 KABQ 270529
TAFSAF
TAF
KSAF 270529Z 2706/2806 30010KT P6SM SCT080 BKN130
     FM270900 33007KT P6SM SCT080 SCT130
     FM271700 33015G23KT P6SM SCT080 SCT130
     FM272000 30015G22KT P6SM SCT080=

USA.gov is the U.S. government's official web portal to all federal, state and local government web resources and services.